Nikiski, AK (99635)

8:48 AM AKST on February 21, 2017 (GMT -0900)
MWDE5328 | | Change Station
Active Advisory: Winter Weather Advisory

Elev 0 ft 60.70 °N, 151.30 °W | Updated 41 days ago

Clear
Clear
16.0 °F
Feels Like 16 °F
N
-
Wind Variable Wind from North

Today
High -- | Low -- °F
--% Chance of Precip.
Yesterday
High -- | Low -- °F
Precip. -- in
Pressure 30.10 in
Visibility 10.0 miles
Clouds Clear
Windchill 16 °F
Dew Point Not available.
Humidity Not available.
Rainfall 0.00 in
Snow Depth Not available.
8:27 AM 6:11 PM
Waning Crescent, 24% visible
METAR PAEN 211653Z 00000KT 10SM CLR M28/M29 A3009 RMK AO2 SLP192 T12781289
Pressure 30.10 in
Visibility 10.0 miles
Clouds Clear
Windchill 16 °F
Dew Point Not available.
Humidity Not available.
Rainfall 0.00 in
Snow Depth Not available.
8:27 AM 6:11 PM
Waning Crescent, 24% visible
METAR PAEN 211653Z 00000KT 10SM CLR M28/M29 A3009 RMK AO2 SLP192 T12781289

Get Your Daily Forecast Email!

Thanks for signing up!

Be on the lookout for a verification email in your inbox.

You'll start receiving the daily forecast at 8 AM.

×

10-Day Weather Forecast

Almanac

Astronomy

Feb. 21, 2017 Rise Set
Actual Time
Civil Twilight
Nautical Twilight
Astronomical Twilight
Moon
Length of Visible Light
Length of Day
Tomorrow will be .
, % of the Moon is Illuminated

Today's Extremes

State Highs State Lows

Community

WunderPhotos

Upload Photos

1,962,540 photos uploaded!

WunderBlog® & News

Nearby

Air Quality

  Air Quality AQ Index Pollutant
Not available.

Snow Depth

Station Depth Elevation

Earthquake Activity

City Distance Mag. Time & Date
Minimum magnitude displayed is 2.5.

Coastal Water Temperatures

Place Temperature

Stations

Nearby Weather Stations

Station Location Temp. Windchill Dew Point Humidity Wind Precip. Elev Updated Type
                   

Watches & Warnings

Winter Weather Advisory
Issued: 4:52 AM AKST Feb. 21, 2017 – National Weather Service

... Winter Weather Advisory for snow in effect from 9 PM this
evening to 9 am akst Wednesday...

The National Weather Service in Anchorage has issued a Winter
Weather Advisory for snow... which is in effect from 9 PM this
evening to 9 am akst Wednesday.

* Snow... 5 to 9 inches south of Clam Gulch and 3 to 5 inches
elsewhere.

* Visibility... one half mile or less at times.

* Timing... light snow will develop from south to north this
evening then become heavy at times overnight. The heaviest snow
will fall along Kachemak Bay northward to Ninilchik. Snow will
diminish during the mid to late morning hours on Wednesday.

* Impacts... travel may be difficult. Visibilities will be limited
in heavy snowfall.

Precautionary/preparedness actions...

A Winter Weather Advisory for snow means that periods of snow
will cause primarily travel difficulties. Be prepared for snow
covered roads and limited visibilities, and use caution while
driving.